sensor_id;sensor_type;location;lat;lon;timestamp;P1;durP1;ratioP1;P2;durP2;ratioP2
20411;SDS011;10365;52.578;8.138;2024-03-06T00:00:41;14.57;;;6.82;;
20411;SDS011;10365;52.578;8.138;2024-03-06T00:03:06;17.48;;;7.00;;
20411;SDS011;10365;52.578;8.138;2024-03-06T00:05:31;9.57;;;6.00;;
20411;SDS011;10365;52.578;8.138;2024-03-06T00:07:57;12.73;;;6.90;;
20411;SDS011;10365;52.578;8.138;2024-03-06T00:10:22;13.85;;;6.63;;
20411;SDS011;10365;52.578;8.138;2024-03-06T00:12:47;18.02;;;7.22;;
20411;SDS011;10365;52.578;8.138;2024-03-06T00:15:13;15.60;;;7.05;;
20411;SDS011;10365;52.578;8.138;2024-03-06T00:17:39;12.70;;;7.05;;
20411;SDS011;10365;52.578;8.138;2024-03-06T00:20:04;18.85;;;6.63;;
20411;SDS011;10365;52.578;8.138;2024-03-06T00:22:30;10.65;;;6.78;;
20411;SDS011;10365;52.578;8.138;2024-03-06T00:24:56;17.80;;;7.15;;
20411;SDS011;10365;52.578;8.138;2024-03-06T00:27:22;15.02;;;7.68;;
20411;SDS011;10365;52.578;8.138;2024-03-06T00:29:47;12.68;;;6.82;;
20411;SDS011;10365;52.578;8.138;2024-03-06T00:32:13;12.13;;;6.93;;
20411;SDS011;10365;52.578;8.138;2024-03-06T00:34:38;13.68;;;7.70;;
20411;SDS011;10365;52.578;8.138;2024-03-06T00:37:03;17.52;;;7.50;;
20411;SDS011;10365;52.578;8.138;2024-03-06T00:39:29;13.35;;;7.47;;
20411;SDS011;10365;52.578;8.138;2024-03-06T00:41:54;12.30;;;7.15;;
20411;SDS011;10365;52.578;8.138;2024-03-06T00:44:19;18.63;;;8.13;;
20411;SDS011;10365;52.578;8.138;2024-03-06T00:46:45;15.60;;;7.38;;
20411;SDS011;10365;52.578;8.138;2024-03-06T00:49:10;16.52;;;8.02;;
20411;SDS011;10365;52.578;8.138;2024-03-06T00:51:36;16.70;;;7.85;;
20411;SDS011;10365;52.578;8.138;2024-03-06T00:54:02;28.77;;;8.25;;
20411;SDS011;10365;52.578;8.138;2024-03-06T00:56:28;16.88;;;7.75;;
20411;SDS011;10365;52.578;8.138;2024-03-06T00:58:53;19.45;;;9.18;;
20411;SDS011;10365;52.578;8.138;2024-03-06T01:01:18;20.95;;;7.93;;
20411;SDS011;10365;52.578;8.138;2024-03-06T01:03:44;12.48;;;7.45;;
20411;SDS011;10365;52.578;8.138;2024-03-06T01:06:09;18.85;;;7.47;;
20411;SDS011;10365;52.578;8.138;2024-03-06T01:08:35;17.05;;;8.00;;
20411;SDS011;10365;52.578;8.138;2024-03-06T01:11:01;13.75;;;8.32;;
20411;SDS011;10365;52.578;8.138;2024-03-06T01:13:26;13.30;;;7.60;;
20411;SDS011;10365;52.578;8.138;2024-03-06T01:15:51;18.73;;;7.97;;
20411;SDS011;10365;52.578;8.138;2024-03-06T01:18:17;18.10;;;8.02;;
20411;SDS011;10365;52.578;8.138;2024-03-06T01:20:42;14.20;;;7.90;;
20411;SDS011;10365;52.578;8.138;2024-03-06T01:23:07;15.95;;;8.73;;
20411;SDS011;10365;52.578;8.138;2024-03-06T01:25:33;12.50;;;7.55;;
20411;SDS011;10365;52.578;8.138;2024-03-06T01:27:58;17.02;;;8.00;;
20411;SDS011;10365;52.578;8.138;2024-03-06T01:30:23;16.52;;;7.88;;
20411;SDS011;10365;52.578;8.138;2024-03-06T01:32:49;17.45;;;8.35;;
20411;SDS011;10365;52.578;8.138;2024-03-06T01:35:14;12.52;;;7.60;;
20411;SDS011;10365;52.578;8.138;2024-03-06T01:37:40;16.63;;;8.77;;
20411;SDS011;10365;52.578;8.138;2024-03-06T01:40:05;15.15;;;7.78;;
20411;SDS011;10365;52.578;8.138;2024-03-06T01:42:32;16.02;;;8.60;;
20411;SDS011;10365;52.578;8.138;2024-03-06T01:44:57;13.93;;;8.18;;
20411;SDS011;10365;52.578;8.138;2024-03-06T01:47:22;17.92;;;7.70;;
20411;SDS011;10365;52.578;8.138;2024-03-06T01:49:48;17.02;;;8.27;;
20411;SDS011;10365;52.578;8.138;2024-03-06T01:52:14;18.42;;;8.70;;
20411;SDS011;10365;52.578;8.138;2024-03-06T01:54:40;16.17;;;9.32;;
20411;SDS011;10365;52.578;8.138;2024-03-06T01:57:06;19.42;;;8.23;;
20411;SDS011;10365;52.578;8.138;2024-03-06T01:59:33;16.15;;;8.82;;
20411;SDS011;10365;52.578;8.138;2024-03-06T02:01:58;19.05;;;9.25;;
20411;SDS011;10365;52.578;8.138;2024-03-06T02:04:26;18.23;;;9.15;;
20411;SDS011;10365;52.578;8.138;2024-03-06T02:06:53;20.25;;;9.63;;
20411;SDS011;10365;52.578;8.138;2024-03-06T02:09:18;24.55;;;9.73;;
20411;SDS011;10365;52.578;8.138;2024-03-06T02:11:44;16.50;;;9.57;;
20411;SDS011;10365;52.578;8.138;2024-03-06T02:14:10;19.80;;;9.57;;
20411;SDS011;10365;52.578;8.138;2024-03-06T02:16:36;16.50;;;9.25;;
20411;SDS011;10365;52.578;8.138;2024-03-06T02:19:01;18.35;;;9.52;;
20411;SDS011;10365;52.578;8.138;2024-03-06T02:21:28;17.00;;;9.45;;
20411;SDS011;10365;52.578;8.138;2024-03-06T02:23:53;20.48;;;10.48;;
20411;SDS011;10365;52.578;8.138;2024-03-06T02:26:20;18.90;;;10.73;;
20411;SDS011;10365;52.578;8.138;2024-03-06T02:28:52;16.90;;;9.70;;
20411;SDS011;10365;52.578;8.138;2024-03-06T02:31:18;15.95;;;9.70;;
20411;SDS011;10365;52.578;8.138;2024-03-06T02:33:45;20.20;;;10.80;;
20411;SDS011;10365;52.578;8.138;2024-03-06T02:36:12;21.20;;;10.25;;
20411;SDS011;10365;52.578;8.138;2024-03-06T02:38:37;21.67;;;10.50;;
20411;SDS011;10365;52.578;8.138;2024-03-06T02:41:03;22.40;;;11.55;;
20411;SDS011;10365;52.578;8.138;2024-03-06T02:43:28;23.90;;;11.48;;
20411;SDS011;10365;52.578;8.138;2024-03-06T02:45:54;20.35;;;10.65;;
20411;SDS011;10365;52.578;8.138;2024-03-06T02:48:19;23.85;;;10.50;;
20411;SDS011;10365;52.578;8.138;2024-03-06T02:50:45;20.42;;;11.38;;
20411;SDS011;10365;52.578;8.138;2024-03-06T02:53:10;18.33;;;10.98;;
20411;SDS011;10365;52.578;8.138;2024-03-06T02:55:35;22.73;;;12.50;;
20411;SDS011;10365;52.578;8.138;2024-03-06T02:58:01;21.45;;;11.38;;
20411;SDS011;10365;52.578;8.138;2024-03-06T03:00:27;24.25;;;12.75;;
20411;SDS011;10365;52.578;8.138;2024-03-06T03:02:53;20.98;;;12.18;;
20411;SDS011;10365;52.578;8.138;2024-03-06T03:05:18;26.05;;;12.40;;
20411;SDS011;10365;52.578;8.138;2024-03-06T03:07:43;22.45;;;12.18;;
20411;SDS011;10365;52.578;8.138;2024-03-06T03:10:09;21.73;;;12.32;;
20411;SDS011;10365;52.578;8.138;2024-03-06T03:12:35;24.80;;;12.88;;
20411;SDS011;10365;52.578;8.138;2024-03-06T03:15:03;24.98;;;12.25;;
20411;SDS011;10365;52.578;8.138;2024-03-06T03:17:28;26.27;;;12.93;;
20411;SDS011;10365;52.578;8.138;2024-03-06T03:19:54;22.25;;;12.32;;
20411;SDS011;10365;52.578;8.138;2024-03-06T03:22:19;25.73;;;13.05;;
20411;SDS011;10365;52.578;8.138;2024-03-06T03:24:45;26.70;;;12.18;;
20411;SDS011;10365;52.578;8.138;2024-03-06T03:27:10;25.92;;;12.70;;
20411;SDS011;10365;52.578;8.138;2024-03-06T03:29:36;23.42;;;12.82;;
20411;SDS011;10365;52.578;8.138;2024-03-06T03:32:01;22.38;;;12.98;;
20411;SDS011;10365;52.578;8.138;2024-03-06T03:34:27;25.42;;;12.15;;
20411;SDS011;10365;52.578;8.138;2024-03-06T03:36:52;21.00;;;12.63;;
20411;SDS011;10365;52.578;8.138;2024-03-06T03:39:18;26.42;;;13.02;;
20411;SDS011;10365;52.578;8.138;2024-03-06T03:41:46;22.88;;;12.02;;
20411;SDS011;10365;52.578;8.138;2024-03-06T03:44:12;28.30;;;12.73;;
20411;SDS011;10365;52.578;8.138;2024-03-06T03:46:37;26.48;;;12.98;;
20411;SDS011;10365;52.578;8.138;2024-03-06T03:49:03;23.13;;;13.07;;
20411;SDS011;10365;52.578;8.138;2024-03-06T03:51:28;26.40;;;12.65;;
20411;SDS011;10365;52.578;8.138;2024-03-06T03:53:53;25.00;;;12.80;;
20411;SDS011;10365;52.578;8.138;2024-03-06T03:56:19;25.08;;;13.00;;
20411;SDS011;10365;52.578;8.138;2024-03-06T03:58:44;24.45;;;11.90;;
20411;SDS011;10365;52.578;8.138;2024-03-06T04:01:10;25.08;;;11.52;;
20411;SDS011;10365;52.578;8.138;2024-03-06T04:03:36;23.50;;;12.63;;
20411;SDS011;10365;52.578;8.138;2024-03-06T04:06:01;25.02;;;12.75;;
20411;SDS011;10365;52.578;8.138;2024-03-06T04:08:27;21.40;;;12.35;;
20411;SDS011;10365;52.578;8.138;2024-03-06T04:10:52;22.20;;;13.38;;
20411;SDS011;10365;52.578;8.138;2024-03-06T04:13:18;26.80;;;12.70;;
20411;SDS011;10365;52.578;8.138;2024-03-06T04:15:45;24.48;;;11.70;;
20411;SDS011;10365;52.578;8.138;2024-03-06T04:18:11;30.77;;;13.40;;
20411;SDS011;10365;52.578;8.138;2024-03-06T04:20:36;23.30;;;12.30;;
20411;SDS011;10365;52.578;8.138;2024-03-06T04:23:01;20.50;;;12.38;;
20411;SDS011;10365;52.578;8.138;2024-03-06T04:25:27;25.13;;;12.82;;
20411;SDS011;10365;52.578;8.138;2024-03-06T04:27:52;22.45;;;12.60;;
20411;SDS011;10365;52.578;8.138;2024-03-06T04:30:18;20.90;;;11.80;;
20411;SDS011;10365;52.578;8.138;2024-03-06T04:32:43;26.80;;;12.77;;
20411;SDS011;10365;52.578;8.138;2024-03-06T04:35:09;22.38;;;11.50;;
20411;SDS011;10365;52.578;8.138;2024-03-06T04:37:35;24.77;;;11.90;;
20411;SDS011;10365;52.578;8.138;2024-03-06T04:40:00;21.85;;;12.52;;
20411;SDS011;10365;52.578;8.138;2024-03-06T04:42:26;25.50;;;12.20;;
20411;SDS011;10365;52.578;8.138;2024-03-06T04:44:51;27.38;;;11.88;;
20411;SDS011;10365;52.578;8.138;2024-03-06T04:47:16;27.38;;;12.07;;
20411;SDS011;10365;52.578;8.138;2024-03-06T04:49:42;23.00;;;11.50;;
20411;SDS011;10365;52.578;8.138;2024-03-06T04:52:07;21.13;;;11.23;;
20411;SDS011;10365;52.578;8.138;2024-03-06T04:54:34;20.35;;;11.00;;
20411;SDS011;10365;52.578;8.138;2024-03-06T04:56:59;28.60;;;11.13;;
20411;SDS011;10365;52.578;8.138;2024-03-06T04:59:25;19.38;;;11.45;;
20411;SDS011;10365;52.578;8.138;2024-03-06T05:01:53;21.20;;;11.60;;
20411;SDS011;10365;52.578;8.138;2024-03-06T05:04:19;31.70;;;11.40;;
20411;SDS011;10365;52.578;8.138;2024-03-06T05:06:44;26.35;;;11.73;;
20411;SDS011;10365;52.578;8.138;2024-03-06T05:09:09;21.13;;;11.90;;
20411;SDS011;10365;52.578;8.138;2024-03-06T05:11:39;22.42;;;12.40;;
20411;SDS011;10365;52.578;8.138;2024-03-06T05:14:05;27.23;;;11.30;;
20411;SDS011;10365;52.578;8.138;2024-03-06T05:16:30;23.20;;;11.25;;
20411;SDS011;10365;52.578;8.138;2024-03-06T05:18:56;23.38;;;11.77;;
20411;SDS011;10365;52.578;8.138;2024-03-06T05:21:21;24.95;;;13.63;;
20411;SDS011;10365;52.578;8.138;2024-03-06T05:23:47;22.42;;;12.15;;
20411;SDS011;10365;52.578;8.138;2024-03-06T05:26:13;22.58;;;11.15;;
20411;SDS011;10365;52.578;8.138;2024-03-06T05:28:38;25.38;;;11.07;;
20411;SDS011;10365;52.578;8.138;2024-03-06T05:31:13;18.63;;;11.13;;
20411;SDS011;10365;52.578;8.138;2024-03-06T05:33:41;25.95;;;12.77;;
20411;SDS011;10365;52.578;8.138;2024-03-06T05:36:06;22.27;;;12.43;;
20411;SDS011;10365;52.578;8.138;2024-03-06T05:38:31;22.52;;;12.38;;
20411;SDS011;10365;52.578;8.138;2024-03-06T05:40:57;22.15;;;11.85;;
20411;SDS011;10365;52.578;8.138;2024-03-06T05:43:24;22.02;;;12.23;;
20411;SDS011;10365;52.578;8.138;2024-03-06T05:45:49;24.15;;;11.80;;
20411;SDS011;10365;52.578;8.138;2024-03-06T05:48:15;27.90;;;11.70;;
20411;SDS011;10365;52.578;8.138;2024-03-06T05:50:40;23.55;;;12.30;;
20411;SDS011;10365;52.578;8.138;2024-03-06T05:53:06;29.00;;;12.35;;
20411;SDS011;10365;52.578;8.138;2024-03-06T05:55:31;28.85;;;12.70;;
20411;SDS011;10365;52.578;8.138;2024-03-06T05:57:57;23.35;;;13.40;;
20411;SDS011;10365;52.578;8.138;2024-03-06T06:00:22;24.80;;;12.90;;
20411;SDS011;10365;52.578;8.138;2024-03-06T06:02:47;25.08;;;11.95;;
20411;SDS011;10365;52.578;8.138;2024-03-06T06:05:13;24.88;;;12.25;;
20411;SDS011;10365;52.578;8.138;2024-03-06T06:07:38;22.92;;;12.82;;
20411;SDS011;10365;52.578;8.138;2024-03-06T06:10:04;20.60;;;12.88;;
20411;SDS011;10365;52.578;8.138;2024-03-06T06:12:33;22.80;;;13.43;;
20411;SDS011;10365;52.578;8.138;2024-03-06T06:14:58;29.00;;;14.10;;
20411;SDS011;10365;52.578;8.138;2024-03-06T06:17:24;21.88;;;12.45;;
20411;SDS011;10365;52.578;8.138;2024-03-06T06:19:49;25.73;;;13.75;;
20411;SDS011;10365;52.578;8.138;2024-03-06T06:22:15;18.95;;;11.50;;
20411;SDS011;10365;52.578;8.138;2024-03-06T06:24:40;24.42;;;13.07;;
20411;SDS011;10365;52.578;8.138;2024-03-06T06:27:06;24.20;;;11.75;;
20411;SDS011;10365;52.578;8.138;2024-03-06T06:29:31;28.33;;;13.80;;
20411;SDS011;10365;52.578;8.138;2024-03-06T06:31:57;24.25;;;13.10;;
20411;SDS011;10365;52.578;8.138;2024-03-06T06:34:22;26.83;;;13.05;;
20411;SDS011;10365;52.578;8.138;2024-03-06T06:36:50;23.83;;;12.88;;
20411;SDS011;10365;52.578;8.138;2024-03-06T06:39:16;22.13;;;11.45;;
20411;SDS011;10365;52.578;8.138;2024-03-06T06:41:42;24.58;;;13.23;;
20411;SDS011;10365;52.578;8.138;2024-03-06T06:44:08;23.40;;;12.93;;
20411;SDS011;10365;52.578;8.138;2024-03-06T06:46:33;22.42;;;12.43;;
20411;SDS011;10365;52.578;8.138;2024-03-06T06:48:59;23.23;;;12.38;;
20411;SDS011;10365;52.578;8.138;2024-03-06T06:51:24;22.42;;;12.60;;
20411;SDS011;10365;52.578;8.138;2024-03-06T06:53:50;20.83;;;12.10;;
20411;SDS011;10365;52.578;8.138;2024-03-06T06:56:15;24.27;;;12.60;;
20411;SDS011;10365;52.578;8.138;2024-03-06T06:58:40;20.30;;;12.13;;
20411;SDS011;10365;52.578;8.138;2024-03-06T07:01:08;22.65;;;12.13;;
20411;SDS011;10365;52.578;8.138;2024-03-06T07:03:33;25.83;;;12.98;;
20411;SDS011;10365;52.578;8.138;2024-03-06T07:05:58;24.13;;;12.63;;
20411;SDS011;10365;52.578;8.138;2024-03-06T07:08:24;20.85;;;12.23;;
20411;SDS011;10365;52.578;8.138;2024-03-06T07:10:49;23.45;;;12.45;;
20411;SDS011;10365;52.578;8.138;2024-03-06T07:13:14;24.85;;;12.60;;
20411;SDS011;10365;52.578;8.138;2024-03-06T07:15:40;27.75;;;12.63;;
20411;SDS011;10365;52.578;8.138;2024-03-06T07:18:06;24.77;;;12.43;;
20411;SDS011;10365;52.578;8.138;2024-03-06T07:20:31;25.98;;;12.75;;
20411;SDS011;10365;52.578;8.138;2024-03-06T07:22:57;22.45;;;13.13;;
20411;SDS011;10365;52.578;8.138;2024-03-06T07:25:23;22.58;;;12.68;;
20411;SDS011;10365;52.578;8.138;2024-03-06T07:27:48;22.45;;;12.80;;
20411;SDS011;10365;52.578;8.138;2024-03-06T07:30:14;27.45;;;13.13;;
20411;SDS011;10365;52.578;8.138;2024-03-06T07:32:39;25.63;;;13.27;;
20411;SDS011;10365;52.578;8.138;2024-03-06T07:35:05;27.15;;;14.13;;
20411;SDS011;10365;52.578;8.138;2024-03-06T07:37:31;24.50;;;12.95;;
20411;SDS011;10365;52.578;8.138;2024-03-06T07:39:56;22.08;;;13.18;;
20411;SDS011;10365;52.578;8.138;2024-03-06T07:42:23;25.42;;;12.57;;
20411;SDS011;10365;52.578;8.138;2024-03-06T07:44:49;25.75;;;13.60;;
20411;SDS011;10365;52.578;8.138;2024-03-06T07:47:15;35.15;;;15.20;;
20411;SDS011;10365;52.578;8.138;2024-03-06T07:49:40;36.38;;;16.85;;
20411;SDS011;10365;52.578;8.138;2024-03-06T07:52:05;39.17;;;16.65;;
20411;SDS011;10365;52.578;8.138;2024-03-06T07:54:31;31.27;;;13.43;;
20411;SDS011;10365;52.578;8.138;2024-03-06T07:56:58;22.83;;;13.00;;
20411;SDS011;10365;52.578;8.138;2024-03-06T07:59:23;26.15;;;12.93;;
20411;SDS011;10365;52.578;8.138;2024-03-06T08:01:48;21.10;;;13.10;;
20411;SDS011;10365;52.578;8.138;2024-03-06T08:04:14;30.48;;;13.27;;
20411;SDS011;10365;52.578;8.138;2024-03-06T08:06:39;24.15;;;12.10;;
20411;SDS011;10365;52.578;8.138;2024-03-06T08:09:05;22.52;;;11.70;;
20411;SDS011;10365;52.578;8.138;2024-03-06T08:11:30;27.48;;;13.40;;
20411;SDS011;10365;52.578;8.138;2024-03-06T08:13:59;24.33;;;13.23;;
20411;SDS011;10365;52.578;8.138;2024-03-06T08:16:24;25.25;;;12.38;;
20411;SDS011;10365;52.578;8.138;2024-03-06T08:18:50;27.23;;;13.57;;
20411;SDS011;10365;52.578;8.138;2024-03-06T08:21:15;25.65;;;13.23;;
20411;SDS011;10365;52.578;8.138;2024-03-06T08:23:40;30.55;;;13.48;;
20411;SDS011;10365;52.578;8.138;2024-03-06T08:26:06;23.33;;;12.82;;
20411;SDS011;10365;52.578;8.138;2024-03-06T08:28:31;24.67;;;13.30;;
20411;SDS011;10365;52.578;8.138;2024-03-06T08:30:56;30.25;;;13.63;;
20411;SDS011;10365;52.578;8.138;2024-03-06T08:33:22;23.73;;;12.85;;
20411;SDS011;10365;52.578;8.138;2024-03-06T08:35:48;25.58;;;12.90;;
20411;SDS011;10365;52.578;8.138;2024-03-06T08:38:13;22.23;;;12.57;;
20411;SDS011;10365;52.578;8.138;2024-03-06T08:40:39;26.80;;;13.35;;
20411;SDS011;10365;52.578;8.138;2024-03-06T08:43:06;26.40;;;12.45;;
20411;SDS011;10365;52.578;8.138;2024-03-06T08:45:31;24.02;;;12.82;;
20411;SDS011;10365;52.578;8.138;2024-03-06T08:47:56;30.13;;;13.93;;
20411;SDS011;10365;52.578;8.138;2024-03-06T08:50:22;29.73;;;13.52;;
20411;SDS011;10365;52.578;8.138;2024-03-06T08:52:47;23.20;;;12.68;;
20411;SDS011;10365;52.578;8.138;2024-03-06T08:55:12;31.00;;;13.15;;
20411;SDS011;10365;52.578;8.138;2024-03-06T08:57:38;30.10;;;14.35;;
20411;SDS011;10365;52.578;8.138;2024-03-06T09:00:04;32.22;;;14.52;;
20411;SDS011;10365;52.578;8.138;2024-03-06T09:02:33;27.13;;;13.85;;
20411;SDS011;10365;52.578;8.138;2024-03-06T09:04:59;30.90;;;13.65;;
20411;SDS011;10365;52.578;8.138;2024-03-06T09:07:24;25.75;;;14.18;;
20411;SDS011;10365;52.578;8.138;2024-03-06T09:09:50;38.25;;;14.55;;
20411;SDS011;10365;52.578;8.138;2024-03-06T09:12:19;27.90;;;14.40;;
20411;SDS011;10365;52.578;8.138;2024-03-06T09:14:44;28.77;;;13.40;;
20411;SDS011;10365;52.578;8.138;2024-03-06T09:17:10;32.13;;;13.85;;
20411;SDS011;10365;52.578;8.138;2024-03-06T09:19:38;36.33;;;16.73;;
20411;SDS011;10365;52.578;8.138;2024-03-06T09:22:03;40.85;;;16.67;;
20411;SDS011;10365;52.578;8.138;2024-03-06T09:24:29;44.65;;;17.77;;
20411;SDS011;10365;52.578;8.138;2024-03-06T09:26:54;43.72;;;18.88;;
20411;SDS011;10365;52.578;8.138;2024-03-06T09:29:20;35.33;;;14.85;;
20411;SDS011;10365;52.578;8.138;2024-03-06T09:31:45;38.78;;;16.05;;
20411;SDS011;10365;52.578;8.138;2024-03-06T09:34:11;39.33;;;16.23;;
20411;SDS011;10365;52.578;8.138;2024-03-06T09:36:38;42.45;;;17.17;;
20411;SDS011;10365;52.578;8.138;2024-03-06T09:39:03;34.50;;;15.93;;
20411;SDS011;10365;52.578;8.138;2024-03-06T09:41:30;36.28;;;15.80;;
20411;SDS011;10365;52.578;8.138;2024-03-06T09:43:55;42.10;;;14.82;;
20411;SDS011;10365;52.578;8.138;2024-03-06T09:46:20;33.70;;;14.77;;
20411;SDS011;10365;52.578;8.138;2024-03-06T09:48:47;37.35;;;15.02;;
20411;SDS011;10365;52.578;8.138;2024-03-06T09:51:12;30.10;;;14.50;;
20411;SDS011;10365;52.578;8.138;2024-03-06T09:53:39;33.08;;;15.55;;
20411;SDS011;10365;52.578;8.138;2024-03-06T09:56:04;31.05;;;15.70;;
20411;SDS011;10365;52.578;8.138;2024-03-06T09:58:30;27.80;;;14.43;;
20411;SDS011;10365;52.578;8.138;2024-03-06T10:00:56;30.33;;;16.25;;
20411;SDS011;10365;52.578;8.138;2024-03-06T10:03:23;26.70;;;13.18;;
20411;SDS011;10365;52.578;8.138;2024-03-06T10:05:48;32.03;;;14.20;;
20411;SDS011;10365;52.578;8.138;2024-03-06T10:08:14;30.83;;;15.00;;
20411;SDS011;10365;52.578;8.138;2024-03-06T10:10:42;30.17;;;14.43;;
20411;SDS011;10365;52.578;8.138;2024-03-06T10:13:08;31.30;;;14.85;;
20411;SDS011;10365;52.578;8.138;2024-03-06T10:15:33;27.23;;;14.30;;
20411;SDS011;10365;52.578;8.138;2024-03-06T10:18:11;29.00;;;14.35;;
20411;SDS011;10365;52.578;8.138;2024-03-06T10:20:39;29.40;;;14.70;;
20411;SDS011;10365;52.578;8.138;2024-03-06T10:23:06;31.92;;;13.88;;
20411;SDS011;10365;52.578;8.138;2024-03-06T10:25:32;30.48;;;15.00;;
20411;SDS011;10365;52.578;8.138;2024-03-06T10:30:30;32.75;;;14.93;;
20411;SDS011;10365;52.578;8.138;2024-03-06T10:32:56;43.08;;;16.23;;
20411;SDS011;10365;52.578;8.138;2024-03-06T10:35:21;43.60;;;16.70;;
20411;SDS011;10365;52.578;8.138;2024-03-06T10:37:47;36.70;;;16.13;;
20411;SDS011;10365;52.578;8.138;2024-03-06T10:40:14;32.28;;;15.35;;
20411;SDS011;10365;52.578;8.138;2024-03-06T10:42:39;40.20;;;15.40;;
20411;SDS011;10365;52.578;8.138;2024-03-06T10:45:07;32.53;;;16.00;;
20411;SDS011;10365;52.578;8.138;2024-03-06T10:47:33;34.85;;;16.65;;
20411;SDS011;10365;52.578;8.138;2024-03-06T10:50:02;30.35;;;15.77;;
20411;SDS011;10365;52.578;8.138;2024-03-06T10:52:30;34.78;;;16.13;;
20411;SDS011;10365;52.578;8.138;2024-03-06T10:55:01;28.38;;;14.68;;
20411;SDS011;10365;52.578;8.138;2024-03-06T10:57:27;31.00;;;14.57;;
20411;SDS011;10365;52.578;8.138;2024-03-06T10:59:54;36.95;;;17.40;;
20411;SDS011;10365;52.578;8.138;2024-03-06T11:02:21;29.58;;;15.95;;
20411;SDS011;10365;52.578;8.138;2024-03-06T11:04:47;38.08;;;18.30;;
20411;SDS011;10365;52.578;8.138;2024-03-06T11:07:13;36.85;;;15.45;;
20411;SDS011;10365;52.578;8.138;2024-03-06T11:09:38;42.53;;;15.98;;
20411;SDS011;10365;52.578;8.138;2024-03-06T11:12:04;38.00;;;17.15;;
20411;SDS011;10365;52.578;8.138;2024-03-06T11:14:32;34.67;;;17.20;;
20411;SDS011;10365;52.578;8.138;2024-03-06T11:16:59;35.20;;;17.42;;
20411;SDS011;10365;52.578;8.138;2024-03-06T11:19:25;38.45;;;17.25;;
20411;SDS011;10365;52.578;8.138;2024-03-06T11:21:50;41.22;;;18.13;;
20411;SDS011;10365;52.578;8.138;2024-03-06T11:24:20;40.22;;;18.85;;
20411;SDS011;10365;52.578;8.138;2024-03-06T11:26:46;40.30;;;18.90;;
20411;SDS011;10365;52.578;8.138;2024-03-06T11:29:11;40.40;;;18.73;;
20411;SDS011;10365;52.578;8.138;2024-03-06T11:31:37;37.35;;;17.92;;
20411;SDS011;10365;52.578;8.138;2024-03-06T11:34:04;38.80;;;18.10;;
20411;SDS011;10365;52.578;8.138;2024-03-06T11:36:29;42.63;;;19.92;;
20411;SDS011;10365;52.578;8.138;2024-03-06T11:39:05;46.85;;;19.67;;
20411;SDS011;10365;52.578;8.138;2024-03-06T11:44:12;42.45;;;19.48;;
20411;SDS011;10365;52.578;8.138;2024-03-06T11:46:44;43.53;;;19.45;;
20411;SDS011;10365;52.578;8.138;2024-03-06T11:49:19;44.92;;;19.08;;
20411;SDS011;10365;52.578;8.138;2024-03-06T11:51:54;46.25;;;20.95;;
20411;SDS011;10365;52.578;8.138;2024-03-06T11:54:19;51.35;;;21.38;;
20411;SDS011;10365;52.578;8.138;2024-03-06T11:56:49;46.90;;;19.75;;
20411;SDS011;10365;52.578;8.138;2024-03-06T11:59:16;42.00;;;18.42;;
20411;SDS011;10365;52.578;8.138;2024-03-06T12:01:41;38.65;;;19.85;;
20411;SDS011;10365;52.578;8.138;2024-03-06T12:04:07;49.67;;;21.52;;
20411;SDS011;10365;52.578;8.138;2024-03-06T12:06:32;43.08;;;21.15;;
20411;SDS011;10365;52.578;8.138;2024-03-06T12:08:58;43.72;;;20.23;;
20411;SDS011;10365;52.578;8.138;2024-03-06T12:11:23;45.03;;;21.13;;
20411;SDS011;10365;52.578;8.138;2024-03-06T12:13:50;47.50;;;20.17;;
20411;SDS011;10365;52.578;8.138;2024-03-06T12:16:16;45.78;;;21.25;;
20411;SDS011;10365;52.578;8.138;2024-03-06T12:18:42;47.55;;;21.20;;
20411;SDS011;10365;52.578;8.138;2024-03-06T12:21:07;39.47;;;20.42;;
20411;SDS011;10365;52.578;8.138;2024-03-06T12:23:33;46.92;;;19.90;;
20411;SDS011;10365;52.578;8.138;2024-03-06T12:26:05;44.20;;;18.88;;
20411;SDS011;10365;52.578;8.138;2024-03-06T12:28:31;39.83;;;18.40;;
20411;SDS011;10365;52.578;8.138;2024-03-06T12:30:57;39.25;;;19.30;;
20411;SDS011;10365;52.578;8.138;2024-03-06T12:33:26;41.65;;;19.55;;
20411;SDS011;10365;52.578;8.138;2024-03-06T12:36:02;39.50;;;19.35;;
20411;SDS011;10365;52.578;8.138;2024-03-06T12:38:28;47.13;;;21.45;;
20411;SDS011;10365;52.578;8.138;2024-03-06T12:40:54;41.10;;;18.88;;
20411;SDS011;10365;52.578;8.138;2024-03-06T12:43:20;43.50;;;20.48;;
20411;SDS011;10365;52.578;8.138;2024-03-06T12:45:45;44.38;;;21.60;;
20411;SDS011;10365;52.578;8.138;2024-03-06T12:48:10;44.17;;;21.25;;
20411;SDS011;10365;52.578;8.138;2024-03-06T12:50:37;41.00;;;20.92;;
20411;SDS011;10365;52.578;8.138;2024-03-06T12:53:03;40.75;;;20.05;;
20411;SDS011;10365;52.578;8.138;2024-03-06T12:55:30;41.00;;;21.23;;
20411;SDS011;10365;52.578;8.138;2024-03-06T12:57:57;40.92;;;20.13;;
20411;SDS011;10365;52.578;8.138;2024-03-06T13:00:22;41.72;;;19.65;;
20411;SDS011;10365;52.578;8.138;2024-03-06T13:02:49;48.28;;;21.27;;
20411;SDS011;10365;52.578;8.138;2024-03-06T13:05:16;43.10;;;20.70;;
20411;SDS011;10365;52.578;8.138;2024-03-06T13:07:42;37.80;;;19.13;;
20411;SDS011;10365;52.578;8.138;2024-03-06T13:10:07;37.92;;;17.90;;
20411;SDS011;10365;52.578;8.138;2024-03-06T13:12:36;36.53;;;18.65;;
20411;SDS011;10365;52.578;8.138;2024-03-06T13:15:01;39.47;;;18.85;;
20411;SDS011;10365;52.578;8.138;2024-03-06T13:17:26;35.08;;;18.83;;
20411;SDS011;10365;52.578;8.138;2024-03-06T13:19:54;36.60;;;17.85;;
20411;SDS011;10365;52.578;8.138;2024-03-06T13:22:19;49.90;;;18.33;;
20411;SDS011;10365;52.578;8.138;2024-03-06T13:24:44;37.50;;;18.77;;
20411;SDS011;10365;52.578;8.138;2024-03-06T13:27:10;33.80;;;17.92;;
20411;SDS011;10365;52.578;8.138;2024-03-06T13:29:35;35.50;;;19.10;;
20411;SDS011;10365;52.578;8.138;2024-03-06T13:32:00;37.47;;;19.70;;
20411;SDS011;10365;52.578;8.138;2024-03-06T13:34:26;37.15;;;19.58;;
20411;SDS011;10365;52.578;8.138;2024-03-06T13:36:51;37.65;;;19.70;;
20411;SDS011;10365;52.578;8.138;2024-03-06T13:39:17;36.88;;;20.30;;
20411;SDS011;10365;52.578;8.138;2024-03-06T13:41:42;36.72;;;18.15;;
20411;SDS011;10365;52.578;8.138;2024-03-06T13:44:07;32.50;;;18.48;;
20411;SDS011;10365;52.578;8.138;2024-03-06T13:46:33;37.30;;;19.58;;
20411;SDS011;10365;52.578;8.138;2024-03-06T13:48:58;34.35;;;18.58;;
20411;SDS011;10365;52.578;8.138;2024-03-06T13:51:24;41.88;;;20.05;;
20411;SDS011;10365;52.578;8.138;2024-03-06T13:53:49;34.88;;;18.20;;
20411;SDS011;10365;52.578;8.138;2024-03-06T13:56:14;33.25;;;18.65;;
20411;SDS011;10365;52.578;8.138;2024-03-06T13:58:40;34.90;;;17.92;;
20411;SDS011;10365;52.578;8.138;2024-03-06T14:01:05;30.20;;;17.83;;
20411;SDS011;10365;52.578;8.138;2024-03-06T14:03:31;35.13;;;19.13;;
20411;SDS011;10365;52.578;8.138;2024-03-06T14:05:58;35.70;;;19.35;;
20411;SDS011;10365;52.578;8.138;2024-03-06T14:08:24;36.05;;;19.63;;
20411;SDS011;10365;52.578;8.138;2024-03-06T14:10:50;41.00;;;21.77;;
20411;SDS011;10365;52.578;8.138;2024-03-06T14:13:15;42.70;;;22.35;;
20411;SDS011;10365;52.578;8.138;2024-03-06T14:15:41;41.40;;;20.80;;
20411;SDS011;10365;52.578;8.138;2024-03-06T14:18:06;41.97;;;19.10;;
20411;SDS011;10365;52.578;8.138;2024-03-06T14:20:32;38.63;;;20.88;;